Time;durP1;ratioP1;P1;durP2;ratioP2;P2;SDS_P1;SDS_P2;PMS_P1;PMS_P2;Temp;Humidity;BMP_temperature;BMP_pressure;BME280_temperature;BME280_humidity;BME280_pressure;Samples;Min_cycle;Max_cycle;Signal;HPM_P1;HPM_P2
2023/10/01 00:02:08;;;;;;;6.55;3.63;;;;;;;;;;5074484;28;20055;-76
2023/10/01 00:04:35;;;;;;;7.82;4.22;;;;;;;;;;5074319;28;20040;-76
2023/10/01 00:07:02;;;;;;;7.15;3.85;;;;;;;;;;5074330;28;20017;-75
2023/10/01 00:09:28;;;;;;;4.60;3.30;;;;;;;;;;5078575;28;20020;-75
2023/10/01 00:11:54;;;;;;;5.28;3.72;;;;;;;;;;5094457;28;20020;-76
2023/10/01 00:14:21;;;;;;;4.75;3.25;;;;;;;;;;5096515;28;20035;-75
2023/10/01 00:16:47;;;;;;;4.30;3.05;;;;;;;;;;5094266;28;20092;-76
2023/10/01 00:19:13;;;;;;;5.53;3.20;;;;;;;;;;5096153;28;20024;-75
2023/10/01 00:21:40;;;;;;;6.28;3.25;;;;;;;;;;5076989;28;20388;-75
2023/10/01 00:24:06;;;;;;;5.28;3.35;;;;;;;;;;5080440;28;20028;-74
2023/10/01 00:26:32;;;;;;;4.80;3.17;;;;;;;;;;5081889;28;20040;-76
2023/10/01 00:28:58;;;;;;;5.55;3.40;;;;;;;;;;5080240;28;20020;-75
2023/10/01 00:31:24;;;;;;;6.05;3.72;;;;;;;;;;5089597;28;20039;-77
2023/10/01 00:33:50;;;;;;;5.75;3.65;;;;;;;;;;5094200;28;20115;-76
2023/10/01 00:36:17;;;;;;;5.43;3.80;;;;;;;;;;5093999;28;20386;-76
2023/10/01 00:38:43;;;;;;;5.35;3.63;;;;;;;;;;5097459;28;20020;-75
2023/10/01 00:41:11;;;;;;;3.90;3.10;;;;;;;;;;5097726;28;20036;-76
2023/10/01 00:43:37;;;;;;;5.05;3.10;;;;;;;;;;5094158;28;20027;-76
2023/10/01 00:46:03;;;;;;;4.78;3.10;;;;;;;;;;5094174;28;20027;-76
2023/10/01 00:48:30;;;;;;;5.53;3.45;;;;;;;;;;5094475;28;20024;-75
2023/10/01 00:50:57;;;;;;;4.90;3.00;;;;;;;;;;5089340;28;20028;-76
2023/10/01 00:53:23;;;;;;;6.28;3.47;;;;;;;;;;5075407;28;20025;-76
2023/10/01 00:55:51;;;;;;;5.80;3.70;;;;;;;;;;5074827;28;20052;-76
2023/10/01 00:58:18;;;;;;;5.75;3.65;;;;;;;;;;5073138;28;20025;-76
2023/10/01 01:00:45;;;;;;;5.28;3.60;;;;;;;;;;5075311;28;20173;-75
2023/10/01 01:03:18;;;;;;;6.25;3.80;;;;;;;;;;5095080;28;20092;-76
2023/10/01 01:05:57;;;;;;;5.40;3.58;;;;;;;;;;5076554;28;20043;-75
2023/10/01 01:08:33;;;;;;;4.13;2.95;;;;;;;;;;5073283;28;20518;-75
2023/10/01 01:11:01;;;;;;;5.15;3.10;;;;;;;;;;5073322;28;20016;-75
2023/10/01 01:13:28;;;;;;;4.07;2.90;;;;;;;;;;5081845;28;20146;-75
2023/10/01 01:15:57;;;;;;;4.93;3.22;;;;;;;;;;5082288;28;20027;-76
2023/10/01 01:18:26;;;;;;;4.63;3.08;;;;;;;;;;5073513;28;20021;-76
2023/10/01 01:21:04;;;;;;;5.43;3.42;;;;;;;;;;5074828;28;20059;-76
2023/10/01 01:23:31;;;;;;;4.32;2.70;;;;;;;;;;5091816;28;20027;-76
2023/10/01 01:25:57;;;;;;;3.55;2.78;;;;;;;;;;5093397;28;20020;-75
2023/10/01 01:28:32;;;;;;;3.75;2.47;;;;;;;;;;5093682;28;20020;-75
2023/10/01 01:31:02;;;;;;;3.90;2.55;;;;;;;;;;5094289;28;20024;-75
2023/10/01 01:34:03;;;;;;;4.93;2.95;;;;;;;;;;5092305;28;20395;-76
2023/10/01 01:36:20;;;;;;;;;;;;;;;;;;5092666;28;20449;-75
2023/10/01 01:39:10;;;;;;;5.32;3.28;;;;;;;;;;5080546;28;19915;-76
2023/10/01 01:41:48;;;;;;;5.30;3.50;;;;;;;;;;5075188;28;20032;-75
2023/10/01 01:44:14;;;;;;;7.25;3.85;;;;;;;;;;5072834;28;20044;-74
2023/10/01 01:46:59;;;;;;;5.82;3.40;;;;;;;;;;5072915;28;20024;-75
2023/10/01 01:49:25;;;;;;;6.18;3.38;;;;;;;;;;5073963;28;20017;-76
2023/10/01 01:51:59;;;;;;;6.32;3.03;;;;;;;;;;5073736;28;20017;-75
2023/10/01 01:54:28;;;;;;;6.70;3.83;;;;;;;;;;5073056;28;20016;-75
2023/10/01 01:56:57;;;;;;;4.70;3.03;;;;;;;;;;5073372;28;20053;-76
2023/10/01 01:59:29;;;;;;;6.13;3.97;;;;;;;;;;5086546;28;20020;-75
2023/10/01 02:01:55;;;;;;;;;;;;;;;;;;5093315;28;20539;-75
2023/10/01 02:04:22;;;;;;;5.60;3.33;;;;;;;;;;5092920;28;19904;-74
2023/10/01 02:06:50;;;;;;;5.18;3.28;;;;;;;;;;5093133;28;20493;-76
2023/10/01 02:09:19;;;;;;;6.15;3.30;;;;;;;;;;5092448;28;20024;-75
2023/10/01 02:11:47;;;;;;;5.30;3.28;;;;;;;;;;5092870;28;20316;-75
2023/10/01 02:14:30;;;;;;;6.30;3.47;;;;;;;;;;5093031;28;20024;-75
2023/10/01 02:17:02;;;;;;;6.20;3.38;;;;;;;;;;5093132;28;20099;-76
2023/10/01 02:19:29;;;;;;;4.50;3.08;;;;;;;;;;5092287;28;20095;-76
2023/10/01 02:22:05;;;;;;;5.63;3.10;;;;;;;;;;5092251;28;20098;-76
2023/10/01 02:27:11;;;;;;;4.72;2.85;;;;;;;;;;5092861;28;20032;-75
2023/10/01 02:30:23;;;;;;;5.40;3.17;;;;;;;;;;5091331;28;20429;-75
2023/10/01 02:32:24;;;;;;;6.35;3.38;;;;;;;;;;5088349;28;20101;-76
2023/10/01 02:34:50;;;;;;;6.05;3.15;;;;;;;;;;5092586;28;20101;-75
2023/10/01 02:37:29;;;;;;;5.68;3.15;;;;;;;;;;5092693;28;20024;-75
2023/10/01 02:39:56;;;;;;;5.65;3.33;;;;;;;;;;5086564;28;20037;-76
2023/10/01 02:42:24;;;;;;;7.50;3.72;;;;;;;;;;5071889;28;20157;-76
2023/10/01 02:44:53;;;;;;;5.22;3.22;;;;;;;;;;5072180;28;20017;-75
2023/10/01 02:47:20;;;;;;;8.27;4.03;;;;;;;;;;5072427;28;20429;-75
2023/10/01 02:49:50;;;;;;;7.03;3.60;;;;;;;;;;5073230;28;20405;-75
2023/10/01 02:52:17;;;;;;;7.28;4.03;;;;;;;;;;5092080;28;20173;-75
2023/10/01 02:54:44;;;;;;;5.90;3.53;;;;;;;;;;5092623;28;20372;-75
2023/10/01 02:57:13;;;;;;;7.43;4.13;;;;;;;;;;5094994;28;20494;-75
2023/10/01 03:00:10;;;;;;;4.53;2.78;;;;;;;;;;5096161;28;20146;-75
2023/10/01 03:02:26;;;;;;;6.95;3.67;;;;;;;;;;5075798;28;20444;-76
2023/10/01 03:04:52;;;;;;;6.43;3.67;;;;;;;;;;5075810;28;20097;-76
2023/10/01 03:07:18;;;;;;;9.52;4.72;;;;;;;;;;5076064;28;20380;-75
2023/10/01 03:09:48;;;;;;;7.57;4.30;;;;;;;;;;5075437;28;20530;-75
2023/10/01 03:12:35;;;;;;;7.43;4.28;;;;;;;;;;5074701;28;20063;-75
2023/10/01 03:16:39;;;;;;;7.63;4.05;;;;;;;;;;5075380;28;20523;-75
2023/10/01 03:17:57;;;;;;;8.52;4.13;;;;;;;;;;5081307;28;20036;-75
2023/10/01 03:23:06;;;;;;;7.60;3.83;;;;;;;;;;5075488;28;20032;-75
2023/10/01 03:25:55;;;;;;;6.90;4.00;;;;;;;;;;5074407;28;20400;-76
2023/10/01 03:28:28;;;;;;;7.10;3.70;;;;;;;;;;5075642;28;20024;-75
2023/10/01 03:31:06;;;;;;;6.80;3.70;;;;;;;;;;5075039;28;20020;-75
2023/10/01 03:33:40;;;;;;;6.90;3.85;;;;;;;;;;5075007;28;20069;-75
2023/10/01 03:36:09;;;;;;;8.32;4.15;;;;;;;;;;5075187;28;20041;-75
2023/10/01 03:38:36;;;;;;;5.95;4.07;;;;;;;;;;5075091;28;20040;-75
2023/10/01 03:41:10;;;;;;;7.80;4.43;;;;;;;;;;5086253;28;20043;-76
2023/10/01 03:43:36;;;;;;;7.03;3.85;;;;;;;;;;5094958;28;20047;-76
2023/10/01 03:57:16;;;;;;;5.45;2.88;;;;;;;;;;5073325;28;20107;-75
2023/10/01 03:59:51;;;;;;;5.47;3.28;;;;;;;;;;5074496;28;20141;-75
2023/10/01 04:05:06;;;;;;;5.78;3.40;;;;;;;;;;5075283;28;20047;-75
2023/10/01 04:07:42;;;;;;;6.97;3.60;;;;;;;;;;5074282;28;20471;-75
2023/10/01 04:10:15;;;;;;;4.53;3.10;;;;;;;;;;5075320;28;20464;-76
2023/10/01 04:12:44;;;;;;;4.75;2.85;;;;;;;;;;5075015;28;20040;-75
2023/10/01 04:15:27;;;;;;;5.88;3.55;;;;;;;;;;5074770;28;20448;-75
2023/10/01 04:18:09;;;;;;;5.32;3.20;;;;;;;;;;5077169;28;20029;-75
2023/10/01 04:20:36;;;;;;;5.45;3.00;;;;;;;;;;5092694;28;20157;-74
2023/10/01 04:23:04;;;;;;;6.30;3.45;;;;;;;;;;5073888;28;20478;-75
2023/10/01 04:25:38;;;;;;;6.00;3.88;;;;;;;;;;5074406;28;20033;-76
2023/10/01 04:28:08;;;;;;;7.18;3.60;;;;;;;;;;5076868;28;20078;-76
2023/10/01 04:30:34;;;;;;;8.05;4.25;;;;;;;;;;5094711;28;20027;-75
2023/10/01 04:33:18;;;;;;;7.40;4.00;;;;;;;;;;5094504;28;20607;-74
2023/10/01 04:35:58;;;;;;;7.55;3.80;;;;;;;;;;5094461;28;20028;-75
2023/10/01 04:38:32;;;;;;;5.45;3.35;;;;;;;;;;5091308;28;20103;-75
2023/10/01 04:41:03;;;;;;;4.85;3.42;;;;;;;;;;5073854;28;20029;-77
2023/10/01 04:43:34;;;;;;;7.97;3.88;;;;;;;;;;5073888;28;20031;-75
2023/10/01 04:46:01;;;;;;;5.82;3.40;;;;;;;;;;5072563;28;20029;-75
2023/10/01 04:48:28;;;;;;;8.52;3.92;;;;;;;;;;5073566;28;20554;-76
2023/10/01 04:50:55;;;;;;;6.55;3.40;;;;;;;;;;5094100;28;20043;-76
2023/10/01 04:53:22;;;;;;;6.88;3.47;;;;;;;;;;5094157;28;20040;-76
2023/10/01 04:56:00;;;;;;;7.32;3.90;;;;;;;;;;5094110;28;20096;-76
2023/10/01 04:58:26;;;;;;;6.72;3.70;;;;;;;;;;5094400;28;20023;-76
2023/10/01 05:00:54;;;;;;;7.63;3.65;;;;;;;;;;5076156;28;20032;-75
2023/10/01 05:03:36;;;;;;;7.18;3.88;;;;;;;;;;5073932;28;20032;-76
2023/10/01 05:06:02;;;;;;;6.47;3.70;;;;;;;;;;5075497;28;20024;-75
2023/10/01 05:08:38;;;;;;;5.68;3.60;;;;;;;;;;5075649;28;20048;-75
2023/10/01 05:11:04;;;;;;;7.65;4.00;;;;;;;;;;5088286;28;20028;-76
2023/10/01 05:13:31;;;;;;;4.68;3.00;;;;;;;;;;5093762;28;20418;-75
2023/10/01 05:15:57;;;;;;;6.43;3.80;;;;;;;;;;5094593;28;20024;-76
2023/10/01 05:18:26;;;;;;;7.18;3.47;;;;;;;;;;5094549;28;20016;-77
2023/10/01 05:20:58;;;;;;;5.20;3.40;;;;;;;;;;5094787;28;20028;-75
2023/10/01 05:23:24;;;;;;;7.15;3.85;;;;;;;;;;5101587;28;20090;-76
2023/10/01 05:25:50;;;;;;;5.50;3.13;;;;;;;;;;5078769;28;20044;-75
2023/10/01 05:28:34;;;;;;;7.03;3.42;;;;;;;;;;5076917;28;20031;-75
2023/10/01 05:31:05;;;;;;;4.95;3.10;;;;;;;;;;5077143;28;20023;-75
2023/10/01 05:33:33;;;;;;;6.73;3.97;;;;;;;;;;5075647;28;20020;-76
2023/10/01 05:36:04;;;;;;;5.30;3.20;;;;;;;;;;5074427;28;20415;-75
2023/10/01 05:38:33;;;;;;;4.93;2.95;;;;;;;;;;5073717;28;20024;-75
2023/10/01 05:41:03;;;;;;;6.40;3.33;;;;;;;;;;5073923;28;20043;-75
2023/10/01 05:43:35;;;;;;;6.78;3.78;;;;;;;;;;5075104;28;20024;-75
2023/10/01 05:46:02;;;;;;;5.47;3.30;;;;;;;;;;5074707;28;20036;-75
2023/10/01 05:48:29;;;;;;;7.28;4.15;;;;;;;;;;5086885;28;20133;-75
2023/10/01 05:50:58;;;;;;;7.38;3.97;;;;;;;;;;5093755;28;20019;-74
2023/10/01 05:53:25;;;;;;;8.25;4.75;;;;;;;;;;5093626;28;20028;-76
2023/10/01 05:55:51;;;;;;;7.32;4.47;;;;;;;;;;5093940;28;20031;-76
2023/10/01 05:58:17;;;;;;;8.25;4.47;;;;;;;;;;5098524;28;20024;-75
2023/10/01 06:00:56;;;;;;;7.50;3.88;;;;;;;;;;5098304;28;20039;-75
2023/10/01 06:03:30;;;;;;;8.80;4.82;;;;;;;;;;5094806;28;20089;-76
2023/10/01 06:05:59;;;;;;;5.50;3.50;;;;;;;;;;5096183;28;20115;-75
2023/10/01 06:08:26;;;;;;;7.85;4.07;;;;;;;;;;5097197;28;20017;-75
2023/10/01 06:11:05;;;;;;;5.97;3.55;;;;;;;;;;5086962;28;20032;-76
2023/10/01 06:13:38;;;;;;;7.00;3.88;;;;;;;;;;5085184;28;20089;-75
2023/10/01 06:16:15;;;;;;;6.50;3.50;;;;;;;;;;5083883;28;20024;-76
2023/10/01 06:18:52;;;;;;;6.55;3.83;;;;;;;;;;5080969;28;20084;-75
2023/10/01 06:21:23;;;;;;;4.72;3.10;;;;;;;;;;5080949;28;20085;-75
2023/10/01 06:23:49;;;;;;;5.30;3.40;;;;;;;;;;5080663;28;20016;-76
2023/10/01 06:26:42;;;;;;;5.47;3.55;;;;;;;;;;5083137;28;20005;-75
2023/10/01 06:29:08;;;;;;;6.50;3.42;;;;;;;;;;5099638;28;20035;-75
2023/10/01 06:34:19;;;;;;;7.95;3.42;;;;;;;;;;5106104;28;20035;-76
2023/10/01 06:36:45;;;;;;;5.25;3.42;;;;;;;;;;5104803;28;20051;-76
2023/10/01 06:39:20;;;;;;;6.10;3.53;;;;;;;;;;5100757;28;20025;-75
2023/10/01 06:41:48;;;;;;;7.53;3.78;;;;;;;;;;5085578;28;20082;-76
2023/10/01 06:44:14;;;;;;;6.90;3.65;;;;;;;;;;5085582;28;20124;-76
2023/10/01 06:46:40;;;;;;;9.20;4.45;;;;;;;;;;5083555;28;20032;-75
2023/10/01 06:49:08;;;;;;;8.52;4.93;;;;;;;;;;5084643;28;20029;-75
2023/10/01 06:51:44;;;;;;;8.30;4.85;;;;;;;;;;5085278;28;20016;-76
2023/10/01 06:54:11;;;;;;;9.93;4.95;;;;;;;;;;5085411;28;20032;-76
2023/10/01 06:56:47;;;;;;;8.98;4.88;;;;;;;;;;5085305;28;20139;-76
2023/10/01 06:59:14;;;;;;;10.00;4.82;;;;;;;;;;5086369;28;20016;-76
2023/10/01 07:01:47;;;;;;;8.27;4.45;;;;;;;;;;5088028;28;20040;-75
2023/10/01 07:04:15;;;;;;;9.50;4.85;;;;;;;;;;5087751;28;20020;-75
2023/10/01 07:06:44;;;;;;;7.80;4.63;;;;;;;;;;5086898;28;20103;-76
2023/10/01 07:09:32;;;;;;;9.75;5.53;;;;;;;;;;5085478;28;20076;-75
2023/10/01 07:11:59;;;;;;;11.88;5.80;;;;;;;;;;5085209;28;20040;-75
2023/10/01 07:14:45;;;;;;;9.50;4.75;;;;;;;;;;5086360;28;20063;-75
2023/10/01 07:17:18;;;;;;;10.35;5.40;;;;;;;;;;5087417;28;20107;-75
2023/10/01 07:19:45;;;;;;;8.90;4.93;;;;;;;;;;5088454;28;20222;-76
2023/10/01 07:22:14;;;;;;;7.82;4.20;;;;;;;;;;5090504;28;20021;-76
2023/10/01 07:24:40;;;;;;;7.75;4.22;;;;;;;;;;5087890;28;20084;-75
2023/10/01 07:27:06;;;;;;;10.15;4.75;;;;;;;;;;5086256;28;20032;-74
2023/10/01 07:29:34;;;;;;;7.68;4.03;;;;;;;;;;5086070;28;20025;-74
2023/10/01 07:32:01;;;;;;;9.40;4.72;;;;;;;;;;5100552;28;20027;-76
2023/10/01 07:34:27;;;;;;;9.95;5.55;;;;;;;;;;5107883;28;20021;-75
2023/10/01 07:36:56;;;;;;;10.73;4.97;;;;;;;;;;5106992;28;20024;-75
2023/10/01 07:39:23;;;;;;;11.15;5.55;;;;;;;;;;5108611;28;20024;-75
2023/10/01 07:41:49;;;;;;;9.63;5.88;;;;;;;;;;5099012;28;20404;-76
2023/10/01 07:44:15;;;;;;;12.23;6.35;;;;;;;;;;5086530;28;20043;-76
2023/10/01 07:46:46;;;;;;;9.80;5.53;;;;;;;;;;5087818;28;20047;-76
2023/10/01 07:49:12;;;;;;;9.95;6.25;;;;;;;;;;5088434;28;20093;-76
2023/10/01 07:51:39;;;;;;;12.18;6.20;;;;;;;;;;5094403;28;20024;-76
2023/10/01 07:54:10;;;;;;;11.10;5.95;;;;;;;;;;5106490;28;20064;-75
2023/10/01 07:56:39;;;;;;;12.98;6.55;;;;;;;;;;5105571;28;20027;-76
2023/10/01 08:02:08;;;;;;;9.20;5.38;;;;;;;;;;5106122;28;20084;-75
2023/10/01 08:07:15;;;;;;;8.43;4.90;;;;;;;;;;5090723;28;20032;-75
2023/10/01 08:09:46;;;;;;;8.23;4.13;;;;;;;;;;5092850;28;20017;-76
2023/10/01 08:12:13;;;;;;;8.45;4.70;;;;;;;;;;5091967;28;20103;-76
2023/10/01 08:14:40;;;;;;;7.70;4.75;;;;;;;;;;5086409;28;20020;-76
2023/10/01 08:17:08;;;;;;;7.43;4.47;;;;;;;;;;5080432;28;20013;-76
2023/10/01 08:19:49;;;;;;;9.90;5.28;;;;;;;;;;5077863;28;20017;-76
2023/10/01 08:22:22;;;;;;;9.45;5.40;;;;;;;;;;5078065;28;20544;-75
2023/10/01 08:24:49;;;;;;;8.27;4.65;;;;;;;;;;5077300;28;20040;-76
2023/10/01 08:27:29;;;;;;;8.45;5.25;;;;;;;;;;5076885;28;20048;-77
2023/10/01 08:32:49;;;;;;;7.43;4.65;;;;;;;;;;5076589;28;20107;-76
2023/10/01 08:35:23;;;;;;;7.40;4.68;;;;;;;;;;5076953;28;20048;-76
2023/10/01 08:37:59;;;;;;;8.27;4.78;;;;;;;;;;5076310;28;20437;-76
2023/10/01 08:40:27;;;;;;;7.18;4.53;;;;;;;;;;5076512;28;20028;-75
2023/10/01 08:42:58;;;;;;;7.25;4.55;;;;;;;;;;5077384;28;20082;-75
2023/10/01 08:45:34;;;;;;;5.72;3.85;;;;;;;;;;5095855;28;20088;-76
2023/10/01 08:48:01;;;;;;;6.40;4.25;;;;;;;;;;5096251;28;20020;-76
2023/10/01 08:50:27;;;;;;;5.30;3.90;;;;;;;;;;5096301;28;20016;-76
2023/10/01 08:53:18;;;;;;;7.05;4.22;;;;;;;;;;5095847;28;20128;-76
2023/10/01 09:00:48;;;;;;;5.50;3.55;;;;;;;;;;5095643;28;20028;-76
2023/10/01 09:03:28;;;;;;;3.83;2.88;;;;;;;;;;5095703;28;20149;-76
2023/10/01 09:06:03;;;;;;;3.88;2.83;;;;;;;;;;5075578;28;20044;-76
2023/10/01 09:08:33;;;;;;;4.82;3.03;;;;;;;;;;5075948;28;20063;-75
2023/10/01 09:11:02;;;;;;;4.07;2.83;;;;;;;;;;5075401;28;20020;-75
2023/10/01 09:13:30;;;;;;;5.07;3.80;;;;;;;;;;5075684;28;20517;-77
2023/10/01 09:16:09;;;;;;;6.53;4.18;;;;;;;;;;5094157;28;20236;-76
2023/10/01 09:18:37;;;;;;;8.68;4.63;;;;;;;;;;5095224;28;20088;-76
2023/10/01 09:21:08;;;;;;;6.95;4.22;;;;;;;;;;5097005;28;20072;-77
2023/10/01 09:23:56;;;;;;;8.15;4.72;;;;;;;;;;5103170;28;20084;-75
2023/10/01 09:26:37;;;;;;;9.18;5.45;;;;;;;;;;5107799;28;20487;-77
2023/10/01 09:29:13;;;;;;;9.07;5.20;;;;;;;;;;5112291;28;20042;-76
2023/10/01 09:31:59;;;;;;;8.70;5.15;;;;;;;;;;5112975;28;20020;-76
2023/10/01 09:34:35;;;;;;;7.97;5.13;;;;;;;;;;5094498;28;20048;-76
2023/10/01 09:37:02;;;;;;;8.07;5.25;;;;;;;;;;5074867;28;20021;-75
2023/10/01 09:39:36;;;;;;;13.38;7.47;;;;;;;;;;5074319;28;20067;-76
2023/10/01 09:42:03;;;;;;;13.05;7.13;;;;;;;;;;5077655;28;20024;-76
2023/10/01 09:44:31;;;;;;;10.57;6.30;;;;;;;;;;5096198;28;20085;-76
2023/10/01 09:47:07;;;;;;;10.65;6.10;;;;;;;;;;5095195;28;20034;-76
2023/10/01 09:49:34;;;;;;;10.57;6.22;;;;;;;;;;5095148;28;20027;-76
2023/10/01 09:52:03;;;;;;;9.57;5.70;;;;;;;;;;5094197;28;20024;-76
2023/10/01 09:54:39;;;;;;;13.30;7.57;;;;;;;;;;5094296;28;20153;-75
2023/10/01 09:57:08;;;;;;;15.10;9.05;;;;;;;;;;5094027;28;20024;-76
2023/10/01 09:59:39;;;;;;;18.55;9.55;;;;;;;;;;5093917;28;20073;-75
2023/10/01 10:02:06;;;;;;;14.27;7.88;;;;;;;;;;5093444;28;20028;-75
2023/10/01 10:04:34;;;;;;;12.95;8.10;;;;;;;;;;5074821;28;20042;-76
2023/10/01 10:07:00;;;;;;;18.15;9.32;;;;;;;;;;5072657;28;20095;-76
2023/10/01 10:09:29;;;;;;;15.70;9.52;;;;;;;;;;5073276;28;20052;-75
2023/10/01 10:12:01;;;;;;;14.82;9.00;;;;;;;;;;5073449;28;20044;-76
2023/10/01 10:14:33;;;;;;;15.45;8.27;;;;;;;;;;5090981;28;20029;-75
2023/10/01 10:17:18;;;;;;;13.65;7.95;;;;;;;;;;5098765;28;20111;-76
2023/10/01 10:20:15;;;;;;;15.23;8.88;;;;;;;;;;5099420;28;20036;-75
2023/10/01 10:23:02;;;;;;;14.23;7.93;;;;;;;;;;5101219;28;20028;-75
2023/10/01 10:25:28;;;;;;;11.60;7.00;;;;;;;;;;5078400;28;20070;-74
2023/10/01 10:27:56;;;;;;;13.15;7.50;;;;;;;;;;5083861;28;20024;-75
2023/10/01 10:30:22;;;;;;;11.25;6.50;;;;;;;;;;5085041;28;20036;-76
2023/10/01 10:33:29;;;;;;;11.50;6.88;;;;;;;;;;5084250;28;20021;-76
2023/10/01 10:36:16;;;;;;;13.98;7.93;;;;;;;;;;5061730;28;20037;-77
2023/10/01 10:38:51;;;;;;;16.45;9.00;;;;;;;;;;5081210;28;20480;-76
2023/10/01 10:41:19;;;;;;;14.73;8.73;;;;;;;;;;5082321;28;20044;-76
2023/10/01 10:44:08;;;;;;;19.88;10.80;;;;;;;;;;5082424;28;20025;-74
2023/10/01 10:46:59;;;;;;;17.63;9.75;;;;;;;;;;5079194;28;20031;-75
2023/10/01 10:49:48;;;;;;;16.17;9.13;;;;;;;;;;5081479;28;20021;-75
2023/10/01 10:52:31;;;;;;;14.82;8.55;;;;;;;;;;5082813;28;20032;-76
2023/10/01 10:55:15;;;;;;;14.65;8.70;;;;;;;;;;5088535;28;20024;-77
2023/10/01 10:57:48;;;;;;;15.13;9.00;;;;;;;;;;5103972;28;20020;-75
2023/10/01 11:00:23;;;;;;;10.38;6.57;;;;;;;;;;5099903;28;20016;-76
2023/10/01 11:02:55;;;;;;;11.25;7.10;;;;;;;;;;5099102;28;20052;-76
2023/10/01 11:05:21;;;;;;;12.60;7.50;;;;;;;;;;5089057;28;20036;-76
2023/10/01 11:08:05;;;;;;;12.60;7.80;;;;;;;;;;5072185;28;20054;-76
2023/10/01 11:10:44;;;;;;;13.85;8.10;;;;;;;;;;5127489;22;20531;-78
2023/10/01 11:13:13;;;;;;;13.50;7.88;;;;;;;;;;5075030;28;20033;-77
2023/10/01 11:15:39;;;;;;;16.77;9.07;;;;;;;;;;5073213;28;20013;-78
2023/10/01 11:18:09;;;;;;;17.85;10.20;;;;;;;;;;5057072;28;20025;-77
2023/10/01 11:20:36;;;;;;;14.48;8.75;;;;;;;;;;5078687;28;20028;-77
2023/10/01 11:23:08;;;;;;;16.90;9.07;;;;;;;;;;5060769;28;20043;-77
2023/10/01 11:25:40;;;;;;;15.10;7.78;;;;;;;;;;5077918;28;20081;-77
2023/10/01 11:28:06;;;;;;;13.27;7.65;;;;;;;;;;5069411;28;20078;-79
2023/10/01 11:30:42;;;;;;;12.27;7.45;;;;;;;;;;5060533;28;20159;-80
2023/10/01 11:35:35;;;;;;;12.88;7.88;;;;;;;;;;5058728;28;20029;-80
2023/10/01 11:38:18;;;;;;;14.93;8.13;;;;;;;;;;5040422;28;20024;-80
2023/10/01 11:43:36;;;;;;;13.80;8.32;;;;;;;;;;5047317;28;20439;-78
2023/10/01 11:46:26;;;;;;;15.63;9.23;;;;;;;;;;5032660;28;20427;-78
2023/10/01 11:48:57;;;;;;;13.98;8.38;;;;;;;;;;5048768;28;20060;-78
2023/10/01 11:52:01;;;;;;;12.93;8.10;;;;;;;;;;5065166;28;20032;-79
2023/10/01 11:54:52;;;;;;;11.55;7.45;;;;;;;;;;5041946;28;20029;-77
2023/10/01 11:57:22;;;;;;;11.10;7.23;;;;;;;;;;5042331;28;20115;-79
2023/10/01 11:59:56;;;;;;;9.50;6.45;;;;;;;;;;5041466;28;20274;-79
2023/10/01 12:02:29;;;;;;;10.55;6.65;;;;;;;;;;5041366;28;20036;-80
2023/10/01 12:04:59;;;;;;;10.43;7.05;;;;;;;;;;5058842;28;20032;-79
2023/10/01 12:07:43;;;;;;;9.55;5.85;;;;;;;;;;5058670;28;20402;-79
2023/10/01 12:11:20;;;;;;;9.65;6.35;;;;;;;;;;5059358;28;20068;-79
2023/10/01 12:12:57;;;;;;;11.35;6.57;;;;;;;;;;5045103;28;20029;-80
2023/10/01 12:15:37;;;;;;;10.18;6.00;;;;;;;;;;5061044;28;20131;-80
2023/10/01 12:18:08;;;;;;;7.63;5.68;;;;;;;;;;5042545;28;20039;-79
2023/10/01 12:20:39;;;;;;;8.88;5.72;;;;;;;;;;5062244;28;20029;-76
2023/10/01 12:23:15;;;;;;;6.88;4.85;;;;;;;;;;5063228;28;20029;-80
2023/10/01 12:25:45;;;;;;;9.32;6.15;;;;;;;;;;5063447;28;20140;-78
2023/10/01 12:28:18;;;;;;;8.02;5.95;;;;;;;;;;5061516;28;20172;-78
2023/10/01 12:30:57;;;;;;;16.88;8.68;;;;;;;;;;5039436;28;20103;-78
2023/10/01 12:33:23;;;;;;;17.88;9.82;;;;;;;;;;5021601;28;20082;-80
2023/10/01 12:35:49;;;;;;;13.43;8.35;;;;;;;;;;5040618;28;20040;-79
2023/10/01 12:40:43;;;;;;;13.10;8.75;;;;;;;;;;5068462;28;20021;-76
2023/10/01 12:45:58;;;;;;;16.70;9.35;;;;;;;;;;5068834;28;20040;-78
2023/10/01 12:48:24;;;;;;;14.85;8.27;;;;;;;;;;5047987;28;20032;-77
2023/10/01 12:51:00;;;;;;;16.75;9.23;;;;;;;;;;5049524;28;20021;-78
2023/10/01 12:53:34;;;;;;;12.80;7.95;;;;;;;;;;5037384;28;20029;-78
2023/10/01 12:56:04;;;;;;;10.93;7.15;;;;;;;;;;5055340;28;20028;-78
2023/10/01 12:58:35;;;;;;;11.02;6.80;;;;;;;;;;5052581;28;20021;-78
2023/10/01 13:03:58;;;;;;;10.35;6.60;;;;;;;;;;5034382;28;20175;-78
2023/10/01 13:06:30;;;;;;;11.23;6.95;;;;;;;;;;5035553;28;20028;-78
2023/10/01 13:08:56;;;;;;;10.15;6.75;;;;;;;;;;5038035;28;20104;-78
2023/10/01 13:11:50;;;;;;;12.98;7.50;;;;;;;;;;5055414;28;20031;-77
2023/10/01 13:14:18;;;;;;;11.75;6.93;;;;;;;;;;5054931;28;20041;-78
2023/10/01 13:16:52;;;;;;;12.70;7.45;;;;;;;;;;5055447;28;20025;-78
2023/10/01 13:19:26;;;;;;;10.93;6.57;;;;;;;;;;5033911;28;20037;-78
2023/10/01 13:21:53;;;;;;;11.63;6.68;;;;;;;;;;5017305;28;20036;-78
2023/10/01 13:24:20;;;;;;;9.75;6.80;;;;;;;;;;5035566;28;20124;-78
2023/10/01 13:27:05;;;;;;;8.45;5.78;;;;;;;;;;5034432;28;20087;-78
2023/10/01 13:29:31;;;;;;;9.43;6.35;;;;;;;;;;5017577;28;20033;-78
2023/10/01 13:32:03;;;;;;;7.78;5.63;;;;;;;;;;5054030;28;20395;-77
2023/10/01 13:34:54;;;;;;;8.70;5.80;;;;;;;;;;5053676;28;20029;-77
2023/10/01 13:40:29;;;;;;;6.15;4.68;;;;;;;;;;5050001;28;20022;-78
2023/10/01 14:10:38;;;;;;;9.70;6.45;;;;;;;;;;4971962;28;20050;-78
2023/10/01 14:13:06;;;;;;;10.25;6.60;;;;;;;;;;5028731;28;20104;-78
2023/10/01 14:15:32;;;;;;;9.07;6.05;;;;;;;;;;5068176;28;20029;-78
2023/10/01 14:18:00;;;;;;;10.10;6.78;;;;;;;;;;5043325;28;20508;-79
2023/10/01 14:23:10;;;;;;;8.18;5.40;;;;;;;;;;5041160;28;20052;-77
2023/10/01 14:25:52;;;;;;;5.82;4.30;;;;;;;;;;5034905;28;20090;-76
2023/10/01 14:28:22;;;;;;;6.57;5.00;;;;;;;;;;5046112;28;20029;-77
2023/10/01 14:30:50;;;;;;;13.25;7.43;;;;;;;;;;5048932;28;20021;-76
2023/10/01 14:33:25;;;;;;;9.48;6.60;;;;;;;;;;5051024;28;20039;-78
2023/10/01 14:35:51;;;;;;;10.48;6.97;;;;;;;;;;5050629;28;20010;-76
2023/10/01 14:38:21;;;;;;;11.00;6.40;;;;;;;;;;5053261;28;20035;-77
2023/10/01 14:40:56;;;;;;;10.63;6.80;;;;;;;;;;5055467;28;19998;-77
2023/10/01 14:43:24;;;;;;;10.98;7.25;;;;;;;;;;5056330;28;20070;-78
2023/10/01 14:45:51;;;;;;;12.43;7.60;;;;;;;;;;5047156;28;20052;-77
2023/10/01 14:48:17;;;;;;;9.30;6.50;;;;;;;;;;5034599;28;20100;-77
2023/10/01 14:50:43;;;;;;;9.48;6.10;;;;;;;;;;5033073;28;20029;-78
2023/10/01 14:53:14;;;;;;;8.18;5.82;;;;;;;;;;5036361;28;20468;-78
2023/10/01 14:55:40;;;;;;;9.07;6.25;;;;;;;;;;5036806;28;20025;-77
2023/10/01 14:58:13;;;;;;;8.75;5.72;;;;;;;;;;5018732;28;20068;-77
2023/10/01 15:00:49;;;;;;;8.77;5.50;;;;;;;;;;5036501;28;20047;-77
2023/10/01 15:03:34;;;;;;;12.05;6.93;;;;;;;;;;5044335;28;20025;-78
2023/10/01 15:06:01;;;;;;;13.18;7.80;;;;;;;;;;5056766;28;20027;-78
2023/10/01 15:08:29;;;;;;;14.18;7.82;;;;;;;;;;5056411;28;20033;-77
2023/10/01 15:10:57;;;;;;;15.02;8.63;;;;;;;;;;5056639;28;20415;-77
2023/10/01 15:13:36;;;;;;;13.93;7.85;;;;;;;;;;5031660;28;20088;-78
2023/10/01 15:16:05;;;;;;;11.18;6.97;;;;;;;;;;5036323;28;20607;-78
2023/10/01 15:18:32;;;;;;;11.88;7.03;;;;;;;;;;5036574;28;20030;-79
2023/10/01 15:21:09;;;;;;;10.23;6.57;;;;;;;;;;5036038;28;20308;-77
2023/10/01 15:23:36;;;;;;;10.05;6.35;;;;;;;;;;5017911;28;20025;-77
2023/10/01 15:26:11;;;;;;;9.35;5.72;;;;;;;;;;5036293;28;20021;-77
2023/10/01 15:28:37;;;;;;;7.28;5.38;;;;;;;;;;5037164;28;20025;-77
2023/10/01 15:31:03;;;;;;;8.05;5.35;;;;;;;;;;5035837;28;20099;-77
2023/10/01 15:33:29;;;;;;;7.22;4.88;;;;;;;;;;5036847;28;20404;-77
2023/10/01 15:35:56;;;;;;;7.50;5.07;;;;;;;;;;5055732;28;20043;-77
2023/10/01 15:38:29;;;;;;;7.95;4.88;;;;;;;;;;5038472;28;20036;-78
2023/10/01 15:40:56;;;;;;;7.22;5.32;;;;;;;;;;5038490;28;20029;-77
2023/10/01 15:43:22;;;;;;;6.95;5.18;;;;;;;;;;5056361;28;20483;-77
2023/10/01 15:45:49;;;;;;;7.78;5.25;;;;;;;;;;5038551;28;20040;-77
2023/10/01 15:48:17;;;;;;;8.80;5.38;;;;;;;;;;5018941;28;20109;-77
2023/10/01 15:50:49;;;;;;;9.25;5.75;;;;;;;;;;5036520;28;20032;-77
2023/10/01 15:53:19;;;;;;;12.70;6.43;;;;;;;;;;5018822;28;20416;-78
2023/10/01 15:56:02;;;;;;;10.35;6.10;;;;;;;;;;5050604;28;20025;-77
2023/10/01 15:58:28;;;;;;;11.85;6.93;;;;;;;;;;5055498;28;20082;-76
2023/10/01 16:00:57;;;;;;;10.93;6.97;;;;;;;;;;5037709;28;20159;-76
2023/10/01 16:03:32;;;;;;;13.75;7.38;;;;;;;;;;5054668;28;20031;-77
2023/10/01 16:06:08;;;;;;;11.15;6.78;;;;;;;;;;5037079;28;20025;-76
2023/10/01 16:08:42;;;;;;;12.40;7.22;;;;;;;;;;5038162;28;20495;-77
2023/10/01 16:11:09;;;;;;;12.70;7.47;;;;;;;;;;5056003;28;20534;-77
2023/10/01 16:13:35;;;;;;;11.65;7.10;;;;;;;;;;5055106;28;20031;-77
2023/10/01 16:16:03;;;;;;;11.65;7.05;;;;;;;;;;5055320;28;20506;-77
2023/10/01 16:18:30;;;;;;;12.02;6.82;;;;;;;;;;5056106;28;20036;-76
2023/10/01 16:21:02;;;;;;;11.93;6.70;;;;;;;;;;5037404;28;20119;-77
2023/10/01 16:23:28;;;;;;;12.65;7.03;;;;;;;;;;5055046;28;20026;-78
2023/10/01 16:25:54;;;;;;;10.77;6.30;;;;;;;;;;5047603;28;20075;-77
2023/10/01 16:28:23;;;;;;;9.90;6.05;;;;;;;;;;5015874;28;20060;-77